createdAt,value
2023-05-19T00:02:47.187Z,38.23
2023-05-19T00:05:53.929Z,38.15
2023-05-19T00:08:58.782Z,38.56
2023-05-19T00:12:02.176Z,39.02
2023-05-19T00:15:07.333Z,39.03
2023-05-19T00:18:10.201Z,38.64
2023-05-19T00:21:13.027Z,39.46
2023-05-19T00:24:15.857Z,39.52
2023-05-19T00:27:18.733Z,39.54
2023-05-19T00:30:23.899Z,39.43
2023-05-19T00:33:26.655Z,39.74
2023-05-19T00:36:31.134Z,39.67
2023-05-19T00:39:33.968Z,39.94
2023-05-19T00:42:36.885Z,38.83
2023-05-19T00:45:41.393Z,35.62
2023-05-19T00:48:45.685Z,35.18
2023-05-19T00:51:51.798Z,35.03
2023-05-19T00:54:54.794Z,35.08
2023-05-19T00:57:58.019Z,35.17
2023-05-19T01:01:04.168Z,34.90
2023-05-19T01:04:10.139Z,34.76
2023-05-19T01:07:13.271Z,34.62
2023-05-19T01:10:16.123Z,34.71
2023-05-19T01:13:18.966Z,34.60
2023-05-19T01:16:27.525Z,34.75
2023-05-19T01:19:38.841Z,34.52
2023-05-19T01:22:50.719Z,34.38
2023-05-19T01:26:14.315Z,34.64
2023-05-19T01:29:29.276Z,34.52
2023-05-19T01:32:34.832Z,34.70
2023-05-19T01:35:38.145Z,34.61
2023-05-19T01:38:41.322Z,34.71
2023-05-19T01:41:45.706Z,34.68
2023-05-19T01:44:48.652Z,34.72
2023-05-19T01:47:55.715Z,34.75
2023-05-19T01:50:58.600Z,34.59
2023-05-19T01:54:01.554Z,34.88
2023-05-19T01:57:08.889Z,34.66
2023-05-19T02:00:15.769Z,34.82
2023-05-19T02:03:27.750Z,34.72
2023-05-19T02:06:33.958Z,34.67
2023-05-19T02:09:41.097Z,34.64
2023-05-19T02:12:44.844Z,34.63
2023-05-19T02:15:48.514Z,34.37
2023-05-19T02:18:54.078Z,34.40
2023-05-19T02:21:57.480Z,34.38
2023-05-19T02:25:00.416Z,34.66
2023-05-19T02:28:03.417Z,34.41
2023-05-19T02:31:09.014Z,34.59
2023-05-19T02:34:13.307Z,34.43
2023-05-19T02:37:16.712Z,34.24
2023-05-19T02:40:19.530Z,34.37
2023-05-19T02:43:22.328Z,34.54
2023-05-19T02:46:25.525Z,34.30
2023-05-19T02:49:31.056Z,34.47
2023-05-19T02:52:33.826Z,34.40
2023-05-19T02:55:36.689Z,34.15
2023-05-19T02:58:39.571Z,34.38
2023-05-19T03:01:42.392Z,34.12
2023-05-19T03:04:46.568Z,34.22
2023-05-19T03:07:49.429Z,34.51
2023-05-19T03:10:52.255Z,34.16
2023-05-19T03:13:55.075Z,34.27
2023-05-19T03:16:57.928Z,34.29
2023-05-19T03:20:02.915Z,34.56
2023-05-19T03:23:05.712Z,34.51
2023-05-19T03:26:08.486Z,34.44
2023-05-19T03:29:11.521Z,34.50
2023-05-19T03:32:14.394Z,34.45
2023-05-19T03:35:18.709Z,34.34
2023-05-19T03:38:21.578Z,34.15
2023-05-19T03:41:24.498Z,34.42
2023-05-19T03:44:27.235Z,34.00
2023-05-19T03:47:31.791Z,33.96
2023-05-19T03:50:38.217Z,34.02
2023-05-19T03:53:41.291Z,34.05
2023-05-19T03:56:44.603Z,34.34
2023-05-19T03:59:47.434Z,33.99
2023-05-19T04:02:50.354Z,34.34
2023-05-19T04:05:54.595Z,33.82
2023-05-19T04:08:57.590Z,34.01
2023-05-19T04:12:00.406Z,33.96
2023-05-19T04:15:03.371Z,34.02
2023-05-19T04:18:06.288Z,34.29
2023-05-19T04:21:10.573Z,33.95
2023-05-19T04:24:13.445Z,34.28
2023-05-19T04:27:17.895Z,34.07
2023-05-19T04:30:22.701Z,34.00
2023-05-19T04:33:25.653Z,33.86
2023-05-19T04:36:29.827Z,33.99
2023-05-19T04:39:32.645Z,33.76
2023-05-19T04:42:35.467Z,33.61
2023-05-19T04:45:42.527Z,33.66
2023-05-19T04:48:45.651Z,33.85
2023-05-19T04:51:53.370Z,33.34
2023-05-19T04:54:58.484Z,33.60
2023-05-19T04:58:01.326Z,33.33
2023-05-19T05:01:04.517Z,33.49
2023-05-19T05:04:07.670Z,33.43
2023-05-19T05:07:11.914Z,33.42
2023-05-19T05:10:14.690Z,33.48
2023-05-19T05:13:17.760Z,33.17
2023-05-19T05:16:20.901Z,32.94
2023-05-19T05:19:24.144Z,33.25
2023-05-19T05:22:28.681Z,32.99
2023-05-19T05:25:31.997Z,33.53
2023-05-19T05:28:34.950Z,33.37
2023-05-19T05:31:38.125Z,33.28
2023-05-19T05:34:42.084Z,33.05
2023-05-19T05:37:46.324Z,33.39
2023-05-19T05:40:49.103Z,33.29
2023-05-19T05:43:51.957Z,33.23
2023-05-19T05:46:55.055Z,33.21
2023-05-19T05:49:58.159Z,32.97
2023-05-19T05:53:02.894Z,33.52
2023-05-19T05:56:06.199Z,33.04
2023-05-19T05:59:08.978Z,32.99
2023-05-19T06:02:11.927Z,32.81
2023-05-19T06:05:14.826Z,33.11
2023-05-19T06:08:19.232Z,33.25
2023-05-19T06:11:22.100Z,33.08
2023-05-19T06:14:24.912Z,33.42
2023-05-19T06:17:27.785Z,32.95
2023-05-19T06:20:30.944Z,33.03
2023-05-19T06:23:35.712Z,33.25
2023-05-19T06:26:38.516Z,32.98
2023-05-19T06:29:41.354Z,33.05
2023-05-19T06:32:44.209Z,33.29
2023-05-19T06:35:47.040Z,33.15
2023-05-19T06:38:51.235Z,33.21
2023-05-19T06:41:54.041Z,33.13
2023-05-19T06:44:56.848Z,33.31
2023-05-19T06:47:59.750Z,33.07
2023-05-19T06:51:02.636Z,33.29
2023-05-19T06:54:06.782Z,32.94
2023-05-19T06:57:09.631Z,33.19
2023-05-19T07:00:15.856Z,33.10
2023-05-19T07:03:20.855Z,33.26
2023-05-19T07:06:23.967Z,33.25
2023-05-19T07:09:28.197Z,33.24
2023-05-19T07:12:31.052Z,33.11
2023-05-19T07:15:33.869Z,33.25
2023-05-19T07:18:36.692Z,33.04
2023-05-19T07:21:39.515Z,33.21
2023-05-19T07:24:43.739Z,33.06
2023-05-19T07:27:46.822Z,33.01
2023-05-19T07:30:50.027Z,33.15
2023-05-19T07:33:54.641Z,33.26
2023-05-19T07:36:57.752Z,32.91
2023-05-19T07:40:01.922Z,32.93
2023-05-19T07:43:04.754Z,33.08
2023-05-19T07:46:08.125Z,32.86
2023-05-19T07:49:11.036Z,32.79
2023-05-19T07:52:13.845Z,32.88
2023-05-19T07:55:19.306Z,32.94
2023-05-19T07:58:22.088Z,32.92
2023-05-19T08:01:24.842Z,32.84
2023-05-19T08:04:27.964Z,32.97
2023-05-19T08:07:30.845Z,32.79
2023-05-19T08:10:35.275Z,33.07
2023-05-19T08:13:49.620Z,32.78
2023-05-19T08:16:52.420Z,32.65
2023-05-19T08:19:55.285Z,32.76
2023-05-19T08:22:58.075Z,32.75
2023-05-19T08:26:02.538Z,32.81
2023-05-19T08:29:05.430Z,32.64
2023-05-19T08:32:10.327Z,32.70
2023-05-19T08:35:14.344Z,32.69
2023-05-19T08:38:17.152Z,32.74
2023-05-19T08:41:21.692Z,32.39
2023-05-19T08:44:24.490Z,32.58
2023-05-19T08:47:28.088Z,32.78
2023-05-19T08:50:32.347Z,32.72
2023-05-19T08:53:37.945Z,32.57
2023-05-19T08:56:43.581Z,32.60
2023-05-19T08:59:46.568Z,33.49
2023-05-19T09:02:59.944Z,33.59
2023-05-19T09:06:09.586Z,33.20
2023-05-19T09:09:12.470Z,33.30
2023-05-19T09:12:16.599Z,32.96
2023-05-19T09:15:20.345Z,33.07
2023-05-19T09:18:25.111Z,32.27
2023-05-19T09:21:31.610Z,32.92
2023-05-19T09:24:35.259Z,33.07
2023-05-19T09:27:39.474Z,33.07
2023-05-19T09:30:42.353Z,32.89
2023-05-19T09:33:46.295Z,32.55
2023-05-19T09:36:50.866Z,32.38
2023-05-19T09:39:54.355Z,32.06
2023-05-19T09:42:58.565Z,32.18
2023-05-19T09:46:01.952Z,32.11
2023-05-19T09:49:09.978Z,32.06
2023-05-19T09:52:16.314Z,31.87
2023-05-19T09:55:23.236Z,32.02
2023-05-19T09:58:28.111Z,31.92
2023-05-19T10:01:33.806Z,31.47
2023-05-19T10:04:36.918Z,32.13
2023-05-19T10:07:40.710Z,31.40
2023-05-19T10:10:43.600Z,31.50
2023-05-19T10:13:48.393Z,31.15
2023-05-19T10:16:52.174Z,30.73
2023-05-19T10:19:56.017Z,31.26
2023-05-19T10:22:58.765Z,31.38
2023-05-19T10:26:04.213Z,31.20
2023-05-19T10:29:08.883Z,31.07
2023-05-19T10:32:12.936Z,31.36
2023-05-19T10:35:21.688Z,31.53
2023-05-19T10:38:28.858Z,30.99
2023-05-19T10:41:39.347Z,31.13
2023-05-19T10:44:47.713Z,30.92
2023-05-19T10:47:51.791Z,30.84
2023-05-19T10:50:55.496Z,30.79
2023-05-19T10:53:58.969Z,31.10
2023-05-19T10:57:01.798Z,31.19
2023-05-19T11:00:11.803Z,31.19
2023-05-19T11:03:15.181Z,30.64
2023-05-19T11:06:21.767Z,30.83
2023-05-19T11:09:37.882Z,30.93
2023-05-19T11:12:44.085Z,30.70
2023-05-19T11:15:49.957Z,30.39
2023-05-19T11:18:55.153Z,30.45
2023-05-19T11:21:58.718Z,30.00
2023-05-19T11:25:01.701Z,30.22
2023-05-19T11:28:04.671Z,30.80
2023-05-19T11:31:10.544Z,31.01
2023-05-19T11:34:14.016Z,30.67
2023-05-19T11:37:16.880Z,30.92
2023-05-19T11:40:19.704Z,31.62
2023-05-19T11:43:24.272Z,30.98
2023-05-19T11:46:28.610Z,31.03
2023-05-19T11:49:31.561Z,31.32
2023-05-19T11:52:35.297Z,31.64
2023-05-19T11:55:43.515Z,31.14
2023-05-19T11:58:54.669Z,31.70
2023-05-19T12:01:59.710Z,31.68
2023-05-19T12:05:02.527Z,31.33
2023-05-19T12:08:05.510Z,31.44
2023-05-19T12:11:08.328Z,31.61
2023-05-19T12:14:11.765Z,30.91
2023-05-19T12:17:16.659Z,31.39
2023-05-19T12:20:20.314Z,30.88
2023-05-19T12:23:24.679Z,30.73
2023-05-19T12:26:27.538Z,31.23
2023-05-19T12:29:30.597Z,31.27
2023-05-19T12:32:35.266Z,31.25
2023-05-19T12:35:38.604Z,31.25
2023-05-19T12:38:42.425Z,31.51
2023-05-19T12:41:46.107Z,31.70
2023-05-19T12:44:50.176Z,31.93
2023-05-19T12:47:54.433Z,32.05
2023-05-19T12:50:57.694Z,32.07
2023-05-19T12:54:03.470Z,31.91
2023-05-19T12:57:06.911Z,32.18
2023-05-19T13:00:15.045Z,32.39
2023-05-19T13:03:20.094Z,32.12
2023-05-19T13:06:23.174Z,31.82
2023-05-19T13:09:26.054Z,32.26
2023-05-19T13:12:29.181Z,32.02
2023-05-19T13:15:35.312Z,31.98
2023-05-19T13:18:39.783Z,31.24
2023-05-19T13:21:42.595Z,31.63
2023-05-19T13:24:45.353Z,31.46
2023-05-19T13:27:48.644Z,31.30
2023-05-19T13:30:52.237Z,31.29
2023-05-19T13:33:56.574Z,31.62
2023-05-19T13:36:59.509Z,30.32
2023-05-19T13:40:02.384Z,30.43
2023-05-19T13:43:05.417Z,29.59
2023-05-19T13:46:08.241Z,29.22
2023-05-19T13:49:12.464Z,29.83
2023-05-19T13:52:15.231Z,30.50
2023-05-19T13:55:18.108Z,30.91
2023-05-19T13:58:20.867Z,31.19
2023-05-19T14:01:23.653Z,31.46
2023-05-19T14:04:28.245Z,31.66
2023-05-19T14:07:31.277Z,31.63
2023-05-19T14:10:34.151Z,31.10
2023-05-19T14:13:40.950Z,30.88
2023-05-19T14:16:45.496Z,31.68
2023-05-19T14:19:49.659Z,31.58
2023-05-19T14:22:52.409Z,30.32
2023-05-19T14:25:55.170Z,31.38
2023-05-19T14:28:58.118Z,30.67
2023-05-19T14:32:01.077Z,30.74
2023-05-19T14:35:06.081Z,30.32
2023-05-19T14:38:08.831Z,30.57
2023-05-19T14:41:11.792Z,29.35
2023-05-19T14:44:14.546Z,29.31
2023-05-19T14:47:17.339Z,29.43
2023-05-19T14:50:21.597Z,29.61
2023-05-19T14:53:24.451Z,29.28
2023-05-19T14:56:27.202Z,28.95
2023-05-19T14:59:30.336Z,28.68
2023-05-19T15:02:33.241Z,29.07
2023-05-19T15:05:37.556Z,29.14
2023-05-19T15:08:41.127Z,28.93
2023-05-19T15:11:43.864Z,28.75
2023-05-19T15:14:46.681Z,29.33
2023-05-19T15:17:49.527Z,27.87
2023-05-19T15:20:53.684Z,27.67
2023-05-19T15:23:56.473Z,28.40
2023-05-19T15:26:59.321Z,28.01
2023-05-19T15:30:02.119Z,28.09
2023-05-19T15:33:05.014Z,28.63
2023-05-19T15:36:09.419Z,27.82
2023-05-19T15:39:12.109Z,27.99
2023-05-19T15:42:14.794Z,28.15
2023-05-19T15:45:17.483Z,28.39
2023-05-19T15:48:20.227Z,28.41
2023-05-19T15:51:24.793Z,28.86
2023-05-19T15:54:27.607Z,28.89
2023-05-19T15:57:30.393Z,28.93
2023-05-19T16:00:33.405Z,29.42
2023-05-19T16:03:36.391Z,29.51
2023-05-19T16:06:40.510Z,29.32
2023-05-19T16:09:43.311Z,29.94
2023-05-19T16:12:46.140Z,29.83
2023-05-19T16:15:48.898Z,30.01
2023-05-19T16:18:51.653Z,29.70
2023-05-19T16:21:55.806Z,30.35
2023-05-19T16:24:58.548Z,30.46
2023-05-19T16:28:01.306Z,30.70
2023-05-19T16:31:04.039Z,30.60
2023-05-19T16:34:06.798Z,31.24
2023-05-19T16:37:10.852Z,33.15
2023-05-19T16:40:13.909Z,33.23
2023-05-19T16:43:16.696Z,33.19
2023-05-19T16:46:19.476Z,33.32
2023-05-19T16:49:22.265Z,33.89
2023-05-19T16:52:26.310Z,33.65
2023-05-19T16:55:29.090Z,33.71
2023-05-19T16:58:31.866Z,34.74
2023-05-19T17:01:34.707Z,34.40
2023-05-19T17:04:37.510Z,34.48
2023-05-19T17:07:41.631Z,35.42
2023-05-19T17:10:44.876Z,35.23
2023-05-19T17:13:47.626Z,35.18
2023-05-19T17:16:52.474Z,35.61
2023-05-19T17:19:55.255Z,35.57
2023-05-19T17:23:08.497Z,36.20
2023-05-19T17:26:11.555Z,35.84
2023-05-19T17:29:14.292Z,36.11
2023-05-19T17:32:17.136Z,36.58
2023-05-19T17:35:19.909Z,36.23
2023-05-19T17:38:24.007Z,36.54
2023-05-19T17:41:26.803Z,36.46
2023-05-19T17:44:29.488Z,36.49
2023-05-19T17:47:32.263Z,36.47
2023-05-19T17:50:35.160Z,36.76
2023-05-19T17:53:39.757Z,36.98
2023-05-19T17:56:43.329Z,36.90
2023-05-19T17:59:46.376Z,36.73
2023-05-19T18:02:49.596Z,37.51
2023-05-19T18:05:52.684Z,37.33
2023-05-19T18:08:59.264Z,37.53
2023-05-19T18:12:02.594Z,37.69
2023-05-19T18:15:06.022Z,37.24
2023-05-19T18:18:10.701Z,37.34
2023-05-19T18:21:17.730Z,36.84
2023-05-19T18:24:22.231Z,37.56
2023-05-19T18:27:24.937Z,37.63
2023-05-19T18:30:27.754Z,37.74
2023-05-19T18:33:31.342Z,37.78
2023-05-19T18:36:35.293Z,37.40
2023-05-19T18:39:39.447Z,37.50
2023-05-19T18:42:42.159Z,37.25
2023-05-19T18:45:45.018Z,37.72
2023-05-19T18:48:49.804Z,38.04
2023-05-19T18:51:52.744Z,38.39
2023-05-19T18:54:56.931Z,37.80
2023-05-19T18:57:59.675Z,38.20
2023-05-19T19:01:02.504Z,38.21
2023-05-19T19:04:05.609Z,37.92
2023-05-19T19:07:08.335Z,38.73
2023-05-19T19:10:12.605Z,38.70
2023-05-19T19:13:15.387Z,39.01
2023-05-19T19:16:18.198Z,39.20
2023-05-19T19:19:23.812Z,39.00
2023-05-19T19:22:26.705Z,39.13
2023-05-19T19:25:30.811Z,38.98
2023-05-19T19:28:33.591Z,38.59
2023-05-19T19:31:36.423Z,38.80
2023-05-19T19:34:39.196Z,38.92
2023-05-19T19:37:42.015Z,38.86
2023-05-19T19:40:46.139Z,38.88
2023-05-19T19:43:48.853Z,38.88
2023-05-19T19:46:51.995Z,39.05
2023-05-19T19:49:54.872Z,38.92
2023-05-19T19:52:57.780Z,39.21
2023-05-19T19:56:02.431Z,39.38
2023-05-19T19:59:05.159Z,39.30
2023-05-19T20:02:08.087Z,39.47
2023-05-19T20:05:11.934Z,39.41
2023-05-19T20:08:16.016Z,38.95
2023-05-19T20:11:22.892Z,39.37
2023-05-19T20:14:25.637Z,39.36
2023-05-19T20:17:28.476Z,39.67
2023-05-19T20:20:31.444Z,39.65
2023-05-19T20:23:35.406Z,39.65
2023-05-19T20:26:39.583Z,39.59
2023-05-19T20:29:42.535Z,39.69
2023-05-19T20:32:46.559Z,39.70
2023-05-19T20:35:49.474Z,38.29
2023-05-19T20:38:53.099Z,36.38
2023-05-19T20:41:57.312Z,35.92
2023-05-19T20:45:00.555Z,35.54
2023-05-19T20:48:03.843Z,35.79
2023-05-19T20:51:06.940Z,35.63
2023-05-19T20:54:10.016Z,35.37
2023-05-19T20:57:14.336Z,35.15
2023-05-19T21:00:17.404Z,35.84
2023-05-19T21:03:21.524Z,36.27
2023-05-19T21:06:26.271Z,36.84
2023-05-19T21:09:29.032Z,36.70
2023-05-19T21:12:34.402Z,36.76
2023-05-19T21:15:37.226Z,37.15
2023-05-19T21:18:40.054Z,37.53
2023-05-19T21:21:44.819Z,37.66
2023-05-19T21:24:47.522Z,38.53
2023-05-19T21:27:51.758Z,37.85
2023-05-19T21:30:54.449Z,37.42
2023-05-19T21:33:57.268Z,37.47
2023-05-19T21:37:00.064Z,38.39
2023-05-19T21:40:02.853Z,38.51
2023-05-19T21:43:07.124Z,38.96
2023-05-19T21:46:09.856Z,38.50
2023-05-19T21:49:12.606Z,38.87
2023-05-19T21:52:15.574Z,38.71
2023-05-19T21:55:18.388Z,38.47
2023-05-19T21:58:22.825Z,37.54
2023-05-19T22:01:25.848Z,36.87
2023-05-19T22:04:31.505Z,37.53
2023-05-19T22:07:34.257Z,37.06
2023-05-19T22:10:37.392Z,36.30
2023-05-19T22:13:41.634Z,36.53
2023-05-19T22:16:44.663Z,36.65
2023-05-19T22:19:47.619Z,36.80
2023-05-19T22:22:50.368Z,36.63
2023-05-19T22:25:53.113Z,36.45
2023-05-19T22:28:57.514Z,36.75
2023-05-19T22:32:00.248Z,37.02
2023-05-19T22:35:03.038Z,37.17
2023-05-19T22:38:06.496Z,37.28
2023-05-19T22:41:11.172Z,37.62
2023-05-19T22:44:16.335Z,37.53
2023-05-19T22:47:19.190Z,37.83
2023-05-19T22:50:22.145Z,38.01
2023-05-19T22:53:24.903Z,37.65
2023-05-19T22:56:27.818Z,37.79
2023-05-19T22:59:31.981Z,37.87
2023-05-19T23:02:34.812Z,37.93
2023-05-19T23:05:37.678Z,38.23
2023-05-19T23:08:40.503Z,38.03
2023-05-19T23:11:43.207Z,38.53
2023-05-19T23:14:47.473Z,38.05
2023-05-19T23:17:50.222Z,38.36
2023-05-19T23:20:53.004Z,38.22
2023-05-19T23:23:55.953Z,38.20
2023-05-19T23:26:58.791Z,38.70
2023-05-19T23:30:03.088Z,38.48
2023-05-19T23:33:05.993Z,38.41
2023-05-19T23:36:09.780Z,38.77
2023-05-19T23:39:12.820Z,39.15
2023-05-19T23:42:15.588Z,39.30
2023-05-19T23:45:19.761Z,39.69
2023-05-19T23:48:22.519Z,39.70
2023-05-19T23:51:25.317Z,40.04
2023-05-19T23:54:30.273Z,39.80
2023-05-19T23:57:33.039Z,39.82
